Time;durP1;ratioP1;P1;durP2;ratioP2;P2;SDS_P1;SDS_P2;PMS_P1;PMS_P2;Temp;Humidity;BMP_temperature;BMP_pressure;BME280_temperature;BME280_humidity;BME280_pressure;Samples;Min_cycle;Max_cycle;Signal;HPM_P1;HPM_P2
2023/05/28 00:01:54;;;;;;;;;9.25;8.00;;;;;21.14;45.43;101351.72;6245873;22;45735;-65
2023/05/28 00:04:21;;;;;;;;;9.25;7.00;;;;;21.09;45.61;101354.75;6244614;22;45297;-65
2023/05/28 00:06:48;;;;;;;;;7.75;7.50;;;;;21.07;45.92;101344.97;6245172;22;46328;-65
2023/05/28 00:09:14;;;;;;;;;9.25;7.00;;;;;21.03;45.69;101340.72;6243946;22;45711;-65
2023/05/28 00:11:39;;;;;;;;;7.75;7.75;;;;;21.05;45.86;101338.78;6246239;22;45216;-65
2023/05/28 00:14:05;;;;;;;;;6.25;6.00;;;;;21.05;45.94;101336.06;6245551;22;45311;-65
2023/05/28 00:16:30;;;;;;;;;9.00;9.00;;;;;21.02;45.66;101342.56;6245087;22;46036;-65
2023/05/28 00:18:55;;;;;;;;;8.75;8.50;;;;;20.95;45.70;101341.25;6245432;22;45258;-65
2023/05/28 00:21:21;;;;;;;;;8.25;8.00;;;;;20.85;46.09;101330.13;6245572;22;45308;-65
2023/05/28 00:23:46;;;;;;;;;10.75;8.50;;;;;20.89;46.02;101341.63;6245449;22;45447;-65
2023/05/28 00:26:11;;;;;;;;;7.75;7.00;;;;;20.86;46.25;101337.28;6244250;22;46367;-65
2023/05/28 00:28:37;;;;;;;;;9.50;8.25;;;;;20.79;46.44;101333.22;6246879;22;45277;-65
2023/05/28 00:31:02;;;;;;;;;10.75;7.50;;;;;20.76;46.19;101335.28;6247178;22;45346;-65
2023/05/28 00:33:27;;;;;;;;;11.50;8.75;;;;;20.69;46.45;101330.25;6246465;22;45520;-65
2023/05/28 00:35:55;;;;;;;;;8.50;8.00;;;;;20.63;46.40;101324.38;6244125;22;47835;-65
2023/05/28 00:38:21;;;;;;;;;8.00;6.00;;;;;20.66;46.53;101321.44;6244306;22;45327;-65
2023/05/28 00:40:46;;;;;;;;;9.25;9.00;;;;;20.61;46.74;101321.72;6247532;22;45256;-65
2023/05/28 00:43:12;;;;;;;;;11.75;10.50;;;;;20.63;46.55;101337.91;6247327;22;45375;-65
2023/05/28 00:45:37;;;;;;;;;12.00;9.50;;;;;20.56;47.00;101332.00;6246904;22;50900;-65
2023/05/28 00:48:02;;;;;;;;;8.00;8.00;;;;;20.50;47.28;101332.41;6247089;22;45172;-65
2023/05/28 00:50:28;;;;;;;;;9.75;8.50;;;;;20.45;47.41;101331.84;6247094;22;45182;-65
2023/05/28 00:52:55;;;;;;;;;10.00;8.00;;;;;20.36;47.21;101326.03;6245986;22;45443;-65
2023/05/28 00:55:20;;;;;;;;;10.25;8.00;;;;;20.34;47.15;101325.25;6246633;22;45178;-65
2023/05/28 00:57:47;;;;;;;;;8.75;7.50;;;;;20.30;47.91;101323.72;6246604;22;45262;-65
2023/05/28 01:00:13;;;;;;;;;7.00;7.00;;;;;20.29;48.17;101324.66;6246385;22;45596;-65
2023/05/28 01:02:39;;;;;;;;;9.75;9.75;;;;;20.27;48.02;101320.34;6246197;22;45358;-65
2023/05/28 01:05:05;;;;;;;;;10.25;8.75;;;;;20.29;48.09;101327.38;6246738;22;46202;-65
2023/05/28 01:07:30;;;;;;;;;10.25;10.25;;;;;20.30;48.08;101334.56;6246677;22;45487;-65
2023/05/28 01:09:56;;;;;;;;;12.75;11.00;;;;;20.30;48.67;101339.97;6247189;22;45272;-65
2023/05/28 01:12:23;;;;;;;;;13.00;8.00;;;;;20.23;48.24;101332.31;6245238;22;45466;-65
2023/05/28 01:14:48;;;;;;;;;6.00;6.00;;;;;20.23;48.58;101335.94;6246470;22;45840;-65
2023/05/28 01:17:14;;;;;;;;;9.75;8.50;;;;;20.20;48.90;101336.13;6246689;22;45256;-65
2023/05/28 01:19:42;;;;;;;;;10.75;8.50;;;;;20.27;48.90;101345.59;6247021;22;45250;-65
2023/05/28 01:22:08;;;;;;;;;10.75;8.00;;;;;20.27;49.13;101342.03;6245955;22;45484;-65
2023/05/28 01:24:39;;;;;;;;;12.00;10.25;;;;;20.22;49.34;101339.59;6270628;22;46986;-65
2023/05/28 01:27:04;;;;;;;;;11.00;11.00;;;;;20.17;49.00;101344.44;6243792;22;45343;-65
2023/05/28 01:29:30;;;;;;;;;10.75;10.75;;;;;20.10;49.33;101322.28;6247354;22;45273;-65
2023/05/28 01:31:55;;;;;;;;;12.25;11.00;;;;;20.13;49.77;101341.06;6246803;22;45239;-65
2023/05/28 01:34:20;;;;;;;;;15.00;13.25;;;;;20.05;49.63;101335.25;6246553;22;45316;-64
2023/05/28 01:36:56;;;;;;;;;11.00;9.75;;;;;20.08;50.01;101345.91;6245034;22;45451;-65
2023/05/28 01:39:25;;;;;;;;;12.00;12.00;;;;;20.04;49.99;101343.47;6246472;22;45287;-65
2023/05/28 01:41:51;;;;;;;;;15.00;11.00;;;;;19.86;50.13;101321.97;6246633;22;45328;-65
2023/05/28 01:44:18;;;;;;;;;17.25;13.00;;;;;19.97;50.16;101351.97;6246642;22;45387;-65
2023/05/28 01:46:46;;;;;;;;;11.00;9.00;;;;;19.91;50.37;101346.97;6270279;22;45264;-65
2023/05/28 01:49:12;;;;;;;;;15.75;11.25;;;;;19.85;50.60;101335.63;6246762;22;45361;-65
2023/05/28 01:51:38;;;;;;;;;16.00;12.50;;;;;19.88;50.57;101354.38;6244403;22;45483;-65
2023/05/28 01:54:03;;;;;;;;;15.25;10.00;;;;;19.82;50.85;101342.09;6246270;22;45292;-65
2023/05/28 01:56:29;;;;;;;;;17.00;13.75;;;;;19.71;51.01;101345.44;6243184;22;45655;-65
2023/05/28 01:58:54;;;;;;;;;13.25;10.50;;;;;19.66;51.09;101347.53;6243602;22;45370;-65
2023/05/28 02:01:30;;;;;;;;;15.50;11.25;;;;;19.56;51.27;101343.66;6246182;22;45208;-65
2023/05/28 02:03:57;;;;;;;;;18.25;14.00;;;;;19.49;51.59;101342.28;6246657;22;45303;-65
2023/05/28 02:06:23;;;;;;;;;16.25;12.00;;;;;19.43;51.75;101335.41;6246511;22;45294;-65
2023/05/28 02:08:49;;;;;;;;;12.50;12.50;;;;;19.38;51.96;101329.41;6245046;22;45401;-65
2023/05/28 02:11:15;;;;;;;;;15.50;14.75;;;;;19.34;52.17;101330.53;6246913;22;45189;-65
2023/05/28 02:13:40;;;;;;;;;19.75;14.75;;;;;19.33;51.84;101347.75;6246040;22;46565;-65
2023/05/28 02:16:06;;;;;;;;;14.25;14.00;;;;;19.31;51.91;101346.97;6245960;22;45227;-65
2023/05/28 02:18:32;;;;;;;;;18.25;14.75;;;;;19.29;52.39;101348.91;6245866;22;45226;-65
2023/05/28 02:20:58;;;;;;;;;13.50;11.75;;;;;19.24;52.47;101346.44;6246164;22;45416;-65
2023/05/28 02:23:23;;;;;;;;;13.75;12.50;;;;;19.24;52.81;101349.16;6245795;22;45392;-65
2023/05/28 02:25:49;;;;;;;;;14.00;13.00;;;;;19.20;52.70;101348.47;6245304;22;45350;-65
2023/05/28 02:28:14;;;;;;;;;15.75;15.00;;;;;19.20;52.87;101353.88;6246717;22;45429;-65
2023/05/28 02:30:39;;;;;;;;;17.75;13.50;;;;;19.16;52.73;101352.34;6245661;22;45333;-65
2023/05/28 02:33:05;;;;;;;;;12.75;12.00;;;;;19.14;52.93;101347.97;6270263;22;48237;-65
2023/05/28 02:35:31;;;;;;;;;10.00;8.00;;;;;19.09;53.29;101353.63;6246184;22;45384;-65
2023/05/28 02:37:56;;;;;;;;;19.25;14.00;;;;;19.00;53.24;101343.38;6245868;22;45256;-65
2023/05/28 02:40:22;;;;;;;;;21.75;16.50;;;;;19.02;53.52;101341.44;6246710;22;45263;-65
2023/05/28 02:42:47;;;;;;;;;17.00;15.00;;;;;18.97;53.30;101340.84;6246391;22;45439;-65
2023/05/28 02:45:12;;;;;;;;;11.75;11.25;;;;;18.92;53.77;101345.66;6246674;22;45299;-65
2023/05/28 02:47:37;;;;;;;;;18.00;14.75;;;;;18.93;53.95;101352.78;6246584;22;45254;-65
2023/05/28 02:50:03;;;;;;;;;15.25;13.75;;;;;18.91;54.05;101355.59;6245570;22;45712;-65
2023/05/28 02:52:28;;;;;;;;;14.50;14.25;;;;;18.93;53.96;101350.97;6245857;22;45290;-65
2023/05/28 02:54:54;;;;;;;;;13.75;12.75;;;;;18.86;54.20;101339.63;6245954;22;52385;-65
2023/05/28 02:57:19;;;;;;;;;18.25;15.50;;;;;18.87;53.73;101341.34;6245598;22;45256;-65
2023/05/28 02:59:44;;;;;;;;;16.75;14.25;;;;;18.85;54.04;101337.00;6246578;22;45209;-65
2023/05/28 03:02:10;;;;;;;;;16.50;13.75;;;;;18.90;54.13;101339.47;6244283;22;47077;-65
2023/05/28 03:04:35;;;;;;;;;12.50;12.00;;;;;18.90;53.99;101340.31;6246242;22;45256;-65
2023/05/28 03:07:01;;;;;;;;;16.25;13.50;;;;;18.91;53.69;101339.38;6244130;22;45326;-65
2023/05/28 03:09:27;;;;;;;;;14.00;12.75;;;;;18.90;54.24;101336.75;6246604;22;45259;-65
2023/05/28 03:11:52;;;;;;;;;12.75;12.00;;;;;18.92;54.18;101342.94;6246354;22;45401;-65
2023/05/28 03:14:18;;;;;;;;;18.25;14.00;;;;;18.88;54.41;101348.53;6245926;22;45307;-65
2023/05/28 03:16:43;;;;;;;;;12.25;10.50;;;;;18.82;54.73;101343.44;6246352;22;45516;-65
2023/05/28 03:19:09;;;;;;;;;18.50;16.75;;;;;18.75;54.17;101330.38;6245362;22;47812;-65
2023/05/28 03:21:35;;;;;;;;;13.25;13.00;;;;;18.80;54.32;101339.09;6245832;22;45970;-65
2023/05/28 03:24:00;;;;;;;;;13.25;13.25;;;;;18.75;54.76;101341.19;6245974;22;45606;-65
2023/05/28 03:26:25;;;;;;;;;16.00;13.50;;;;;18.69;54.41;101332.47;6245648;22;45425;-65
2023/05/28 03:28:51;;;;;;;;;23.00;19.50;;;;;18.70;54.37;101338.72;6245475;22;57963;-65
2023/05/28 03:31:16;;;;;;;;;15.25;13.50;;;;;18.64;54.20;101336.38;6246254;22;45857;-65
2023/05/28 03:33:41;;;;;;;;;19.25;17.00;;;;;18.63;54.50;101334.63;6245948;22;52674;-65
2023/05/28 03:36:07;;;;;;;;;18.00;14.50;;;;;18.59;54.65;101335.75;6245955;22;50625;-65
2023/05/28 03:38:33;;;;;;;;;15.00;14.00;;;;;18.58;54.57;101340.31;6269864;22;45371;-65
2023/05/28 03:40:58;;;;;;;;;16.75;14.50;;;;;18.57;54.86;101335.84;6246244;22;46696;-65
2023/05/28 03:43:24;;;;;;;;;19.25;14.25;;;;;18.54;54.61;101329.75;6243901;22;45750;-65
2023/05/28 03:45:50;;;;;;;;;18.75;14.25;;;;;18.49;55.11;101336.28;6246410;22;45280;-65
2023/05/28 03:48:15;;;;;;;;;15.75;14.00;;;;;18.48;55.12;101339.94;6243971;22;45313;-65
2023/05/28 03:50:40;;;;;;;;;16.00;14.75;;;;;18.47;55.18;101337.31;6245335;22;45969;-65
2023/05/28 03:53:06;;;;;;;;;18.75;17.50;;;;;18.44;55.46;101335.69;6245248;22;45319;-65
2023/05/28 03:55:33;;;;;;;;;14.75;14.00;;;;;18.46;55.43;101340.97;6244651;22;45279;-65
2023/05/28 03:57:58;;;;;;;;;17.50;13.75;;;;;18.35;55.17;101324.50;6246015;22;45267;-65
2023/05/28 04:00:24;;;;;;;;;14.00;13.00;;;;;18.36;55.21;101343.34;6243325;22;48360;-65
2023/05/28 04:02:49;;;;;;;;;17.50;14.50;;;;;18.35;55.62;101338.88;6247065;22;45322;-64
2023/05/28 04:05:15;;;;;;;;;14.50;13.50;;;;;18.40;55.94;101346.75;6247284;22;45457;-64
2023/05/28 04:07:40;;;;;;;;;19.00;18.25;;;;;18.24;55.89;101328.69;6246876;22;45509;-65
2023/05/28 04:10:06;;;;;;;;;17.00;14.00;;;;;18.31;56.03;101346.28;6244952;22;47371;-65
2023/05/28 04:12:31;;;;;;;;;18.50;14.00;;;;;18.31;55.89;101350.84;6247078;22;45410;-65
2023/05/28 04:14:57;;;;;;;;;16.00;14.00;;;;;18.25;56.22;101338.50;6246765;22;45367;-65
2023/05/28 04:17:22;;;;;;;;;17.75;14.75;;;;;18.31;55.88;101353.53;6246772;22;45442;-65
2023/05/28 04:19:48;;;;;;;;;19.00;16.75;;;;;18.30;56.23;101351.78;6244507;22;48037;-65
2023/05/28 04:22:13;;;;;;;;;20.75;17.75;;;;;18.24;55.80;101346.69;6245967;22;45419;-65
2023/05/28 04:24:38;;;;;;;;;19.75;16.25;;;;;18.26;55.90;101347.50;6244928;22;45299;-65
2023/05/28 04:27:04;;;;;;;;;19.25;18.00;;;;;18.24;56.13;101339.50;6246862;22;45237;-65
2023/05/28 04:29:32;;;;;;;;;19.50;14.50;;;;;18.17;56.06;101343.47;6247011;22;45421;-65
2023/05/28 04:31:57;;;;;;;;;18.25;16.25;;;;;18.20;56.47;101355.94;6244733;22;45408;-65
2023/05/28 04:34:24;;;;;;;;;19.75;15.50;;;;;18.17;56.47;101350.72;6247255;22;45558;-65
2023/05/28 04:36:51;;;;;;;;;19.75;17.50;;;;;18.14;55.93;101354.44;6246523;22;45457;-65
2023/05/28 04:39:17;;;;;;;;;17.00;16.75;;;;;18.11;56.35;101351.94;6244391;22;45392;-65
2023/05/28 04:41:43;;;;;;;;;17.75;16.00;;;;;18.02;56.48;101347.00;6247239;22;45484;-65
2023/05/28 04:44:09;;;;;;;;;21.00;15.75;;;;;18.09;56.67;101357.41;6246667;22;45276;-65
2023/05/28 04:46:36;;;;;;;;;23.75;17.25;;;;;18.09;56.55;101368.22;6246545;22;45577;-65
2023/05/28 04:49:02;;;;;;;;;21.25;16.75;;;;;18.06;56.71;101357.56;6243148;22;45688;-64
2023/05/28 04:51:27;;;;;;;;;15.50;15.50;;;;;17.96;56.16;101362.59;6242803;22;45683;-65
2023/05/28 04:53:53;;;;;;;;;19.00;17.00;;;;;17.95;56.58;101374.34;6246940;22;45422;-65
2023/05/28 04:56:18;;;;;;;;;14.50;14.00;;;;;17.94;56.69;101379.81;6246664;22;46966;-64
2023/05/28 04:58:44;;;;;;;;;19.50;16.50;;;;;17.91;57.19;101378.19;6246682;22;45278;-65
2023/05/28 05:01:09;;;;;;;;;21.25;17.50;;;;;17.89;56.58;101379.19;6246865;22;45512;-64
2023/05/28 05:03:35;;;;;;;;;21.00;16.00;;;;;17.81;56.84;101374.19;6245060;22;45412;-65
2023/05/28 05:06:00;;;;;;;;;20.50;19.25;;;;;17.76;56.67;101365.47;6246665;22;45466;-64
2023/05/28 05:08:27;;;;;;;;;19.00;16.75;;;;;17.72;57.17;101369.25;6246172;22;45419;-65
2023/05/28 05:10:52;;;;;;;;;18.00;15.00;;;;;17.67;56.94;101368.63;6247194;22;45728;-64
2023/05/28 05:13:17;;;;;;;;;17.75;17.75;;;;;17.59;57.22;101366.31;6246666;22;45494;-65
2023/05/28 05:15:43;;;;;;;;;15.25;13.50;;;;;17.57;57.46;101370.91;6244715;22;45418;-65
2023/05/28 05:18:08;;;;;;;;;18.25;15.25;;;;;17.59;57.69;101377.09;6246482;22;49825;-65
2023/05/28 05:20:33;;;;;;;;;16.75;14.00;;;;;17.58;57.26;101369.97;6246361;22;45212;-65
2023/05/28 05:22:58;;;;;;;;;16.25;15.00;;;;;17.63;57.92;101369.75;6246078;22;45449;-65
2023/05/28 05:25:24;;;;;;;;;19.00;18.25;;;;;17.67;57.86;101374.03;6246696;22;45403;-65
2023/05/28 05:27:53;;;;;;;;;17.75;16.25;;;;;17.67;57.83;101377.59;6246231;22;45281;-65
2023/05/28 05:30:18;;;;;;;;;19.25;15.00;;;;;17.67;57.34;101388.38;6246859;22;45304;-64
2023/05/28 05:32:43;;;;;;;;;17.50;17.50;;;;;17.65;57.82;101376.81;6244316;22;45313;-65
2023/05/28 05:35:09;;;;;;;;;21.75;18.75;;;;;17.63;57.41;101375.16;6246120;22;51382;-65
2023/05/28 05:37:35;;;;;;;;;17.00;16.75;;;;;17.53;57.61;101370.22;6245847;22;45728;-65
2023/05/28 05:40:01;;;;;;;;;21.25;20.25;;;;;17.57;57.35;101384.41;6244076;22;45348;-65
2023/05/28 05:42:26;;;;;;;;;23.00;20.00;;;;;17.55;57.86;101386.34;6246591;22;45405;-65
2023/05/28 05:44:53;;;;;;;;;18.00;18.00;;;;;17.54;57.68;101384.56;6245207;22;45287;-65
2023/05/28 05:47:18;;;;;;;;;19.25;19.25;;;;;17.48;57.85;101384.91;6242818;22;47160;-64
2023/05/28 05:49:43;;;;;;;;;20.00;17.50;;;;;17.44;57.79;101388.69;6245895;22;45224;-64
2023/05/28 05:52:08;;;;;;;;;17.00;15.75;;;;;17.44;58.15;101395.00;6244664;22;49836;-66
2023/05/28 05:54:34;;;;;;;;;20.00;18.00;;;;;17.40;58.32;101391.53;6246085;22;50797;-66
2023/05/28 05:57:02;;;;;;;;;21.50;21.00;;;;;17.49;58.22;101386.63;6246237;22;45915;-66
2023/05/28 05:59:27;;;;;;;;;22.25;18.00;;;;;17.39;57.75;101378.13;6245833;22;45620;-66
2023/05/28 06:01:52;;;;;;;;;20.25;19.75;;;;;17.44;58.11;101380.59;6246850;22;45474;-66
2023/05/28 06:04:18;;;;;;;;;16.25;13.00;;;;;17.44;58.42;101373.41;6243894;22;56274;-66
2023/05/28 06:06:44;;;;;;;;;26.00;22.25;;;;;17.54;58.47;101384.56;6244224;22;45977;-66
2023/05/28 06:09:10;;;;;;;;;22.75;21.75;;;;;17.53;58.23;101378.31;6244524;22;45747;-66
2023/05/28 06:11:35;;;;;;;;;21.00;20.25;;;;;17.50;58.31;101383.00;6246434;22;45565;-66
2023/05/28 06:14:00;;;;;;;;;24.75;19.25;;;;;17.47;58.33;101386.72;6243184;22;45614;-66
2023/05/28 06:16:26;;;;;;;;;26.00;18.00;;;;;17.48;58.23;101384.91;6246463;22;46106;-66
2023/05/28 06:18:51;;;;;;;;;21.75;20.00;;;;;17.44;58.39;101370.69;6244529;22;45394;-66
2023/05/28 06:21:17;;;;;;;;;18.50;15.00;;;;;17.48;58.38;101374.97;6244405;22;45243;-66
2023/05/28 06:23:43;;;;;;;;;18.50;18.50;;;;;17.58;58.36;101386.19;6245465;22;45381;-66
2023/05/28 06:26:08;;;;;;;;;18.50;17.00;;;;;17.60;58.33;101389.66;6246492;22;46017;-66
2023/05/28 06:28:33;;;;;;;;;19.00;18.75;;;;;17.60;57.90;101370.78;6244360;22;47436;-66
2023/05/28 06:30:59;;;;;;;;;20.25;20.00;;;;;17.63;58.13;101369.75;6245868;22;45450;-66
2023/05/28 06:33:24;;;;;;;;;20.50;17.75;;;;;17.64;57.73;101357.97;6243726;22;57922;-66
2023/05/28 06:35:50;;;;;;;;;17.75;15.75;;;;;17.69;57.94;101355.91;6246431;22;46074;-66
2023/05/28 06:38:15;;;;;;;;;19.25;18.25;;;;;17.74;57.94;101370.94;6244287;22;45251;-66
2023/05/28 06:40:40;;;;;;;;;18.50;14.75;;;;;17.71;57.81;101359.44;6246807;22;45799;-66
2023/05/28 06:43:07;;;;;;;;;16.25;15.75;;;;;17.66;57.82;101354.25;6246385;22;45401;-66
2023/05/28 06:45:32;;;;;;;;;20.50;15.00;;;;;17.80;57.76;101372.44;6244152;22;48022;-66
2023/05/28 06:47:58;;;;;;;;;18.00;17.50;;;;;17.79;58.06;101359.88;6245061;22;45534;-66
2023/05/28 06:50:24;;;;;;;;;20.00;18.50;;;;;17.87;57.58;101378.41;6244090;22;45452;-66
2023/05/28 06:52:49;;;;;;;;;23.25;19.00;;;;;17.88;57.80;101370.22;6246146;22;45299;-66
2023/05/28 06:55:14;;;;;;;;;19.00;17.25;;;;;17.96;57.91;101375.22;6244129;22;46033;-66
2023/05/28 06:57:40;;;;;;;;;17.25;16.75;;;;;18.04;58.00;101380.22;6245527;22;45395;-65
2023/05/28 07:00:10;;;;;;;;;22.00;17.75;;;;;18.07;57.30;101380.91;6243523;22;45369;-65
2023/05/28 07:02:36;;;;;;;;;20.25;18.25;;;;;18.08;57.16;101373.69;6246156;22;45181;-65
2023/05/28 07:05:04;;;;;;;;;16.25;16.25;;;;;18.08;57.16;101379.09;6246332;22;46113;-65
2023/05/28 07:07:30;;;;;;;;;21.00;19.00;;;;;18.03;57.13;101371.25;6246264;22;45560;-65
2023/05/28 07:09:55;;;;;;;;;22.00;18.00;;;;;18.15;57.38;101385.91;6245644;22;45363;-65
2023/05/28 07:12:21;;;;;;;;;18.25;16.25;;;;;18.11;56.98;101379.81;6245947;22;45294;-65
2023/05/28 07:14:46;;;;;;;;;17.50;17.00;;;;;18.21;57.37;101382.88;6244280;22;45382;-65
2023/05/28 07:17:11;;;;;;;;;24.75;20.75;;;;;18.25;57.00;101386.28;6244388;22;45288;-65
2023/05/28 07:19:36;;;;;;;;;17.00;14.50;;;;;18.27;57.30;101377.13;6241209;22;45532;-65
2023/05/28 07:22:02;;;;;;;;;21.00;17.25;;;;;18.37;56.75;101385.63;6244155;22;45536;-65
2023/05/28 07:24:27;;;;;;;;;26.00;21.50;;;;;18.37;57.08;101380.22;6244788;22;47118;-65
2023/05/28 07:26:53;;;;;;;;;16.75;14.75;;;;;18.43;56.75;101390.69;6245316;22;45309;-65
2023/05/28 07:29:18;;;;;;;;;19.50;17.00;;;;;18.46;57.26;101392.34;6246342;22;45252;-66
2023/05/28 07:31:44;;;;;;;;;21.25;17.75;;;;;18.48;57.11;101388.59;6243174;22;45286;-65
2023/05/28 07:34:10;;;;;;;;;16.00;14.00;;;;;18.56;57.06;101380.06;6244015;22;45307;-65
2023/05/28 07:36:37;;;;;;;;;18.50;17.50;;;;;18.59;57.06;101381.72;6242883;22;45257;-65
2023/05/28 07:39:03;;;;;;;;;20.25;16.50;;;;;18.68;56.74;101373.97;6244942;22;45496;-65
2023/05/28 07:41:29;;;;;;;;;13.00;12.00;;;;;18.67;56.29;101365.94;6242553;22;45425;-65
2023/05/28 07:43:54;;;;;;;;;21.75;20.25;;;;;18.81;56.57;101375.97;6242636;22;47358;-66
2023/05/28 07:46:21;;;;;;;;;21.50;15.75;;;;;18.91;56.29;101385.38;6244351;22;45413;-65
2023/05/28 07:48:48;;;;;;;;;21.75;17.00;;;;;18.91;55.70;101384.47;6243522;22;45414;-65
2023/05/28 07:51:13;;;;;;;;;20.00;19.25;;;;;18.98;56.06;101380.47;6244155;22;45403;-65
2023/05/28 07:53:39;;;;;;;;;13.25;11.00;;;;;19.05;55.87;101379.16;6239911;22;47459;-66
2023/05/28 07:56:05;;;;;;;;;18.75;17.00;;;;;19.13;55.59;101379.56;6241560;22;45339;-65
2023/05/28 07:58:30;;;;;;;;;16.00;15.00;;;;;19.14;55.20;101381.28;6244433;22;45366;-65
2023/05/28 08:00:55;;;;;;;;;17.00;16.75;;;;;19.27;55.30;101376.06;6244335;22;45500;-65
2023/05/28 08:03:22;;;;;;;;;17.75;17.25;;;;;19.33;55.38;101374.81;6244755;22;46323;-65
2023/05/28 08:05:47;;;;;;;;;16.75;14.25;;;;;19.32;54.64;101362.25;6244422;22;45696;-65
2023/05/28 08:08:12;;;;;;;;;16.00;14.75;;;;;19.43;54.81;101362.50;6242647;22;45286;-65
2023/05/28 08:10:38;;;;;;;;;14.50;13.00;;;;;19.52;54.79;101371.91;6244257;22;45496;-65
2023/05/28 08:13:03;;;;;;;;;16.25;15.25;;;;;19.61;54.63;101371.31;6241717;22;46733;-65
2023/05/28 08:15:28;;;;;;;;;17.50;14.50;;;;;19.67;54.62;101357.41;6242510;22;45365;-65
2023/05/28 08:17:54;;;;;;;;;17.25;14.75;;;;;19.77;54.76;101368.59;6268216;22;45729;-65
2023/05/28 08:20:22;;;;;;;;;16.25;14.25;;;;;19.83;54.26;101368.22;6243792;22;45329;-65
2023/05/28 08:22:47;;;;;;;;;19.50;14.75;;;;;19.90;54.23;101363.31;6268102;22;46192;-65
2023/05/28 08:25:13;;;;;;;;;15.50;15.50;;;;;19.98;54.17;101366.41;6243120;22;45244;-65
2023/05/28 08:27:38;;;;;;;;;13.50;13.50;;;;;19.99;54.24;101358.16;6245784;22;45441;-65
2023/05/28 08:30:05;;;;;;;;;16.50;14.75;;;;;20.11;54.01;101361.09;6242449;22;45469;-65
2023/05/28 08:32:30;;;;;;;;;17.25;14.25;;;;;20.16;53.46;101353.53;6245688;22;45305;-65
2023/05/28 08:34:55;;;;;;;;;14.75;14.00;;;;;20.16;53.78;101343.56;6243141;22;45276;-66
2023/05/28 08:37:21;;;;;;;;;14.50;12.75;;;;;20.29;53.71;101354.50;6245366;22;45407;-65
2023/05/28 08:39:46;;;;;;;;;17.00;14.00;;;;;20.34;53.04;101349.66;6244096;22;45343;-65
2023/05/28 08:42:11;;;;;;;;;14.50;14.50;;;;;20.35;53.14;101350.53;6241809;22;45305;-66
2023/05/28 08:44:37;;;;;;;;;18.75;16.00;;;;;20.37;53.38;101345.88;6243941;22;45291;-66
2023/05/28 08:47:03;;;;;;;;;18.25;14.75;;;;;20.50;53.21;101352.25;6244239;22;45431;-65
2023/05/28 08:49:38;;;;;;;;;20.75;14.75;;;;;20.53;52.93;101343.03;6243681;22;45974;-65
2023/05/28 08:52:05;;;;;;;;;12.75;12.75;;;;;20.58;52.66;101340.94;6242554;22;47951;-65
2023/05/28 08:54:31;;;;;;;;;14.00;13.75;;;;;20.63;52.87;101336.09;6244398;22;45703;-65
2023/05/28 08:56:58;;;;;;;;;18.50;12.25;;;;;20.67;53.07;101332.19;6245343;22;45414;-65
2023/05/28 08:59:24;;;;;;;;;9.75;9.00;;;;;20.79;53.13;101332.38;6245311;22;45489;-65
2023/05/28 09:01:51;;;;;;;;;13.50;11.50;;;;;20.83;52.81;101325.75;6245528;22;45891;-65
2023/05/28 09:04:16;;;;;;;;;15.00;13.25;;;;;20.97;52.16;101328.44;6245395;22;45272;-66
2023/05/28 09:06:42;;;;;;;;;15.50;15.50;;;;;21.02;52.12;101337.13;6242558;22;45378;-67
2023/05/28 09:09:07;;;;;;;;;11.00;10.75;;;;;21.08;52.27;101330.41;6244571;22;45567;-67
2023/05/28 09:11:33;;;;;;;;;13.00;11.00;;;;;21.08;51.48;101325.88;6245948;22;45522;-67
2023/05/28 09:13:58;;;;;;;;;15.25;12.25;;;;;21.17;51.12;101337.09;6246617;22;45368;-68
2023/05/28 09:16:24;;;;;;;;;13.75;11.50;;;;;21.19;51.20;101330.56;6246988;22;45295;-65
2023/05/28 09:18:51;;;;;;;;;11.75;11.00;;;;;21.24;51.13;101324.81;6245735;22;45483;-64
2023/05/28 09:21:19;;;;;;;;;15.00;13.25;;;;;21.25;50.94;101330.16;6245076;22;46599;-65
2023/05/28 09:23:46;;;;;;;;;10.75;10.25;;;;;21.28;50.81;101329.94;6246612;22;45434;-65
2023/05/28 09:26:11;;;;;;;;;15.50;12.75;;;;;21.30;50.77;101332.56;6245642;22;45528;-65
2023/05/28 09:28:41;;;;;;;;;14.50;13.00;;;;;21.32;50.32;101322.47;6246480;22;45456;-65
2023/05/28 09:31:06;;;;;;;;;12.50;11.50;;;;;21.37;50.86;101323.00;6245733;22;45584;-65
2023/05/28 09:33:32;;;;;;;;;9.50;8.00;;;;;21.43;50.46;101316.28;6245829;22;45409;-65
2023/05/28 09:36:02;;;;;;;;;12.50;10.75;;;;;21.48;50.45;101313.28;6242494;22;45656;-65
2023/05/28 09:38:39;;;;;;;;;10.25;8.75;;;;;21.54;50.85;101310.16;6244438;22;45538;-65
2023/05/28 09:41:04;;;;;;;;;10.00;8.50;;;;;21.58;50.41;101308.94;6245847;22;46130;-65
2023/05/28 09:43:29;;;;;;;;;15.00;10.75;;;;;21.62;50.45;101296.91;6243678;22;45276;-65
2023/05/28 09:46:08;;;;;;;;;12.75;10.00;;;;;21.74;50.16;101306.91;6244250;22;45376;-65
2023/05/28 09:48:33;;;;;;;;;10.25;10.00;;;;;21.79;49.89;101312.88;6244097;22;45268;-65
2023/05/28 09:51:02;;;;;;;;;11.50;9.25;;;;;21.82;50.17;101295.50;6242923;22;46766;-65
2023/05/28 09:53:30;;;;;;;;;8.00;8.00;;;;;21.89;49.34;101293.22;6244809;22;45300;-65
2023/05/28 09:55:58;;;;;;;;;9.50;8.50;;;;;21.92;48.82;101296.56;6243042;22;45581;-65
2023/05/28 09:58:31;;;;;;;;;7.00;6.25;;;;;22.04;49.12;101299.41;6242786;22;45589;-65
2023/05/28 10:01:00;;;;;;;;;13.50;9.00;;;;;22.11;48.92;101296.09;6243388;22;46345;-65
2023/05/28 10:03:36;;;;;;;;;13.00;11.00;;;;;22.21;48.36;101294.44;6244771;22;45248;-65
2023/05/28 10:06:08;;;;;;;;;7.25;7.25;;;;;22.24;47.57;101276.19;6243295;22;45328;-65
2023/05/28 10:08:37;;;;;;;;;11.00;10.25;;;;;22.17;47.69;101257.59;6244529;22;45235;-65
2023/05/28 10:11:07;;;;;;;;;8.50;7.00;;;;;22.37;47.28;101285.22;6244179;22;45314;-64
2023/05/28 10:13:34;;;;;;;;;11.00;10.00;;;;;22.32;47.46;101273.78;6244725;22;45328;-65
2023/05/28 10:16:00;;;;;;;;;8.00;8.00;;;;;22.48;46.25;101288.00;6242653;22;45353;-65
2023/05/28 10:18:27;;;;;;;;;9.25;9.00;;;;;22.53;46.25;101279.50;6240567;22;45644;-65
2023/05/28 10:20:53;;;;;;;;;8.00;8.00;;;;;22.58;46.01;101280.88;6239037;22;47601;-65
2023/05/28 10:23:20;;;;;;;;;2.75;2.75;;;;;22.78;45.69;101285.84;6241129;22;45838;-65
2023/05/28 10:25:46;;;;;;;;;10.00;9.00;;;;;22.88;46.27;101281.44;6241226;22;45481;-65
2023/05/28 10:28:14;;;;;;;;;9.25;8.75;;;;;22.89;46.00;101275.88;6240071;22;45444;-65
2023/05/28 10:30:40;;;;;;;;;10.75;9.25;;;;;23.00;44.52;101271.47;6238472;22;47503;-65
2023/05/28 10:33:11;;;;;;;;;11.00;10.00;;;;;23.08;44.79;101282.66;6238560;22;45784;-64
2023/05/28 10:35:51;;;;;;;;;10.00;10.00;;;;;23.13;44.39;101280.44;6240146;22;45434;-65
2023/05/28 10:38:16;;;;;;;;;11.75;9.00;;;;;23.15;44.33;101270.31;6240378;22;45690;-65
2023/05/28 10:40:42;;;;;;;;;10.75;7.50;;;;;23.22;43.93;101281.59;6241092;22;46035;-65
2023/05/28 10:43:40;;;;;;;;;8.25;8.25;;;;;23.28;42.53;101275.69;6238741;22;45355;-65
2023/05/28 10:46:25;;;;;;;;;8.25;6.00;;;;;23.36;42.58;101269.66;6230188;22;45477;-65
2023/05/28 10:49:08;;;;;;;;;10.25;6.75;;;;;23.41;42.19;101268.28;6239758;22;45376;-65
2023/05/28 10:52:00;;;;;;;;;8.75;7.25;;;;;23.52;42.20;101280.19;6242094;22;45746;-65
2023/05/28 10:54:38;;;;;;;;;11.50;10.75;;;;;23.53;41.56;101252.81;6241549;22;45677;-65
2023/05/28 10:57:16;;;;;;;;;7.25;5.75;;;;;23.61;41.87;101263.97;6241808;22;45782;-66
2023/05/28 10:59:45;;;;;;;;;9.50;9.00;;;;;23.69;40.86;101279.75;6240265;22;45561;-65
2023/05/28 11:02:31;;;;;;;;;10.00;6.75;;;;;23.68;40.84;101265.22;6241332;22;45658;-65
2023/05/28 11:05:00;;;;;;;;;9.75;7.50;;;;;23.83;41.52;101275.94;6240479;22;45837;-65
2023/05/28 11:07:31;;;;;;;;;8.50;8.50;;;;;23.79;40.78;101267.09;6241193;22;45357;-65
2023/05/28 11:09:58;;;;;;;;;12.00;10.50;;;;;23.89;40.59;101272.72;6239811;22;45706;-64